sensor_id;sensor_type;location;lat;lon;timestamp;P1;durP1;ratioP1;P2;durP2;ratioP2
23720;SDS011;42950;52.134;5.578;2022-10-16T00:01:56;7.03;;;2.28;;
23720;SDS011;42950;52.134;5.578;2022-10-16T00:04:21;5.38;;;2.67;;
23720;SDS011;42950;52.134;5.578;2022-10-16T00:06:47;5.57;;;2.55;;
23720;SDS011;42950;52.134;5.578;2022-10-16T00:09:13;6.07;;;2.78;;
23720;SDS011;42950;52.134;5.578;2022-10-16T00:11:39;8.15;;;2.67;;
23720;SDS011;42950;52.134;5.578;2022-10-16T00:14:07;9.82;;;2.83;;
23720;SDS011;42950;52.134;5.578;2022-10-16T00:16:35;6.95;;;2.88;;
23720;SDS011;42950;52.134;5.578;2022-10-16T00:19:01;6.15;;;2.60;;
23720;SDS011;42950;52.134;5.578;2022-10-16T00:21:28;6.15;;;3.10;;
23720;SDS011;42950;52.134;5.578;2022-10-16T00:23:58;8.65;;;3.08;;
23720;SDS011;42950;52.134;5.578;2022-10-16T00:26:30;7.45;;;2.65;;
23720;SDS011;42950;52.134;5.578;2022-10-16T00:28:57;4.65;;;2.70;;
23720;SDS011;42950;52.134;5.578;2022-10-16T00:31:23;6.40;;;2.60;;
23720;SDS011;42950;52.134;5.578;2022-10-16T00:33:50;7.18;;;3.38;;
23720;SDS011;42950;52.134;5.578;2022-10-16T00:36:17;5.75;;;2.83;;
23720;SDS011;42950;52.134;5.578;2022-10-16T00:38:44;5.75;;;3.17;;
23720;SDS011;42950;52.134;5.578;2022-10-16T00:41:12;5.05;;;2.45;;
23720;SDS011;42950;52.134;5.578;2022-10-16T00:43:47;4.57;;;2.80;;
23720;SDS011;42950;52.134;5.578;2022-10-16T00:51:15;4.57;;;2.45;;
23720;SDS011;42950;52.134;5.578;2022-10-16T00:53:49;5.22;;;2.60;;
23720;SDS011;42950;52.134;5.578;2022-10-16T00:56:15;8.63;;;3.05;;
23720;SDS011;42950;52.134;5.578;2022-10-16T00:58:41;2.97;;;2.50;;
23720;SDS011;42950;52.134;5.578;2022-10-16T01:01:07;3.95;;;2.30;;
23720;SDS011;42950;52.134;5.578;2022-10-16T01:03:34;6.28;;;2.40;;
23720;SDS011;42950;52.134;5.578;2022-10-16T01:11:54;5.43;;;2.47;;
23720;SDS011;42950;52.134;5.578;2022-10-16T01:14:31;6.45;;;2.53;;
23720;SDS011;42950;52.134;5.578;2022-10-16T01:17:31;5.53;;;2.47;;
23720;SDS011;42950;52.134;5.578;2022-10-16T01:22:43;5.15;;;2.30;;
23720;SDS011;42950;52.134;5.578;2022-10-16T01:25:16;8.00;;;2.97;;
23720;SDS011;42950;52.134;5.578;2022-10-16T01:27:48;6.15;;;2.75;;
23720;SDS011;42950;52.134;5.578;2022-10-16T01:30:23;6.50;;;2.55;;
23720;SDS011;42950;52.134;5.578;2022-10-16T01:32:54;6.13;;;2.33;;
23720;SDS011;42950;52.134;5.578;2022-10-16T01:35:28;3.78;;;2.47;;
23720;SDS011;42950;52.134;5.578;2022-10-16T01:37:59;5.20;;;2.22;;
23720;SDS011;42950;52.134;5.578;2022-10-16T01:40:30;4.03;;;2.30;;
23720;SDS011;42950;52.134;5.578;2022-10-16T01:43:00;5.60;;;2.53;;
23720;SDS011;42950;52.134;5.578;2022-10-16T01:45:40;3.65;;;2.30;;
23720;SDS011;42950;52.134;5.578;2022-10-16T01:48:09;4.28;;;2.47;;
23720;SDS011;42950;52.134;5.578;2022-10-16T01:50:39;2.50;;;2.30;;
23720;SDS011;42950;52.134;5.578;2022-10-16T01:53:07;5.50;;;2.50;;
23720;SDS011;42950;52.134;5.578;2022-10-16T01:55:38;6.40;;;2.63;;
23720;SDS011;42950;52.134;5.578;2022-10-16T01:58:09;5.90;;;2.40;;
23720;SDS011;42950;52.134;5.578;2022-10-16T02:00:37;5.25;;;2.58;;
23720;SDS011;42950;52.134;5.578;2022-10-16T02:03:04;3.45;;;2.17;;
23720;SDS011;42950;52.134;5.578;2022-10-16T02:05:42;2.83;;;2.20;;
23720;SDS011;42950;52.134;5.578;2022-10-16T02:08:12;5.20;;;2.15;;
23720;SDS011;42950;52.134;5.578;2022-10-16T02:10:38;4.97;;;2.63;;
23720;SDS011;42950;52.134;5.578;2022-10-16T02:15:41;3.65;;;2.40;;
23720;SDS011;42950;52.134;5.578;2022-10-16T02:18:07;5.18;;;2.65;;
23720;SDS011;42950;52.134;5.578;2022-10-16T02:20:37;4.25;;;2.78;;
23720;SDS011;42950;52.134;5.578;2022-10-16T02:23:12;2.88;;;2.50;;
23720;SDS011;42950;52.134;5.578;2022-10-16T02:25:43;4.07;;;2.60;;
23720;SDS011;42950;52.134;5.578;2022-10-16T02:28:24;7.35;;;2.70;;
23720;SDS011;42950;52.134;5.578;2022-10-16T02:30:56;5.57;;;2.63;;
23720;SDS011;42950;52.134;5.578;2022-10-16T02:33:25;5.68;;;2.80;;
23720;SDS011;42950;52.134;5.578;2022-10-16T02:35:51;6.20;;;2.60;;
23720;SDS011;42950;52.134;5.578;2022-10-16T02:38:18;5.07;;;2.40;;
23720;SDS011;42950;52.134;5.578;2022-10-16T02:40:46;4.05;;;2.50;;
23720;SDS011;42950;52.134;5.578;2022-10-16T02:43:12;3.25;;;2.60;;
23720;SDS011;42950;52.134;5.578;2022-10-16T02:45:38;2.75;;;2.47;;
23720;SDS011;42950;52.134;5.578;2022-10-16T02:48:04;4.60;;;2.50;;
23720;SDS011;42950;52.134;5.578;2022-10-16T02:50:30;4.68;;;2.42;;
23720;SDS011;42950;52.134;5.578;2022-10-16T02:52:56;3.33;;;2.50;;
23720;SDS011;42950;52.134;5.578;2022-10-16T02:55:21;5.13;;;2.58;;
23720;SDS011;42950;52.134;5.578;2022-10-16T02:57:47;4.35;;;2.60;;
23720;SDS011;42950;52.134;5.578;2022-10-16T03:00:13;5.18;;;2.63;;
23720;SDS011;42950;52.134;5.578;2022-10-16T03:02:40;3.38;;;2.63;;
23720;SDS011;42950;52.134;5.578;2022-10-16T03:05:06;6.88;;;2.92;;
23720;SDS011;42950;52.134;5.578;2022-10-16T03:07:32;4.55;;;2.60;;
23720;SDS011;42950;52.134;5.578;2022-10-16T03:09:57;4.28;;;2.60;;
23720;SDS011;42950;52.134;5.578;2022-10-16T03:12:25;4.25;;;2.60;;
23720;SDS011;42950;52.134;5.578;2022-10-16T03:14:51;3.45;;;2.58;;
23720;SDS011;42950;52.134;5.578;2022-10-16T03:17:17;4.35;;;2.67;;
23720;SDS011;42950;52.134;5.578;2022-10-16T03:19:43;3.80;;;2.60;;
23720;SDS011;42950;52.134;5.578;2022-10-16T03:22:08;3.03;;;2.53;;
23720;SDS011;42950;52.134;5.578;2022-10-16T03:24:34;3.20;;;2.28;;
23720;SDS011;42950;52.134;5.578;2022-10-16T03:26:59;6.68;;;2.47;;
23720;SDS011;42950;52.134;5.578;2022-10-16T03:29:25;4.13;;;2.72;;
23720;SDS011;42950;52.134;5.578;2022-10-16T03:31:51;7.97;;;2.72;;
23720;SDS011;42950;52.134;5.578;2022-10-16T03:34:16;4.13;;;2.58;;
23720;SDS011;42950;52.134;5.578;2022-10-16T03:36:42;5.75;;;2.35;;
23720;SDS011;42950;52.134;5.578;2022-10-16T03:39:07;5.15;;;2.78;;
23720;SDS011;42950;52.134;5.578;2022-10-16T03:41:33;5.07;;;2.90;;
23720;SDS011;42950;52.134;5.578;2022-10-16T03:43:59;4.20;;;2.50;;
23720;SDS011;42950;52.134;5.578;2022-10-16T03:46:24;4.45;;;2.92;;
23720;SDS011;42950;52.134;5.578;2022-10-16T03:48:50;4.45;;;2.53;;
23720;SDS011;42950;52.134;5.578;2022-10-16T03:51:15;4.97;;;2.70;;
23720;SDS011;42950;52.134;5.578;2022-10-16T03:53:41;5.05;;;3.00;;
23720;SDS011;42950;52.134;5.578;2022-10-16T03:56:06;4.00;;;2.40;;
23720;SDS011;42950;52.134;5.578;2022-10-16T03:58:32;6.00;;;2.78;;
23720;SDS011;42950;52.134;5.578;2022-10-16T04:00:57;3.13;;;2.40;;
23720;SDS011;42950;52.134;5.578;2022-10-16T04:03:23;4.32;;;2.33;;
23720;SDS011;42950;52.134;5.578;2022-10-16T04:05:49;3.65;;;2.47;;
23720;SDS011;42950;52.134;5.578;2022-10-16T04:08:15;3.05;;;2.75;;
23720;SDS011;42950;52.134;5.578;2022-10-16T04:10:42;6.63;;;2.78;;
23720;SDS011;42950;52.134;5.578;2022-10-16T04:13:08;4.05;;;2.60;;
23720;SDS011;42950;52.134;5.578;2022-10-16T04:15:34;6.28;;;2.78;;
23720;SDS011;42950;52.134;5.578;2022-10-16T04:18:00;3.78;;;2.22;;
23720;SDS011;42950;52.134;5.578;2022-10-16T04:20:25;3.03;;;2.22;;
23720;SDS011;42950;52.134;5.578;2022-10-16T04:22:51;3.42;;;2.30;;
23720;SDS011;42950;52.134;5.578;2022-10-16T04:25:16;3.05;;;2.60;;
23720;SDS011;42950;52.134;5.578;2022-10-16T04:27:42;2.80;;;2.42;;
23720;SDS011;42950;52.134;5.578;2022-10-16T04:30:08;4.75;;;2.55;;
23720;SDS011;42950;52.134;5.578;2022-10-16T04:32:35;3.78;;;2.28;;
23720;SDS011;42950;52.134;5.578;2022-10-16T04:35:01;6.20;;;2.50;;
23720;SDS011;42950;52.134;5.578;2022-10-16T04:37:27;4.75;;;2.22;;
23720;SDS011;42950;52.134;5.578;2022-10-16T04:39:53;2.35;;;2.10;;
23720;SDS011;42950;52.134;5.578;2022-10-16T04:42:19;3.70;;;2.38;;
23720;SDS011;42950;52.134;5.578;2022-10-16T04:44:45;5.07;;;2.45;;
23720;SDS011;42950;52.134;5.578;2022-10-16T04:47:11;2.85;;;2.10;;
23720;SDS011;42950;52.134;5.578;2022-10-16T04:49:37;3.35;;;1.95;;
23720;SDS011;42950;52.134;5.578;2022-10-16T04:52:02;3.55;;;2.00;;
23720;SDS011;42950;52.134;5.578;2022-10-16T04:54:28;4.43;;;2.20;;
23720;SDS011;42950;52.134;5.578;2022-10-16T04:56:54;3.63;;;2.05;;
23720;SDS011;42950;52.134;5.578;2022-10-16T04:59:20;2.95;;;2.10;;
23720;SDS011;42950;52.134;5.578;2022-10-16T05:01:46;2.63;;;1.90;;
23720;SDS011;42950;52.134;5.578;2022-10-16T05:04:11;3.10;;;2.17;;
23720;SDS011;42950;52.134;5.578;2022-10-16T05:06:37;3.63;;;2.08;;
23720;SDS011;42950;52.134;5.578;2022-10-16T05:09:04;6.05;;;2.22;;
23720;SDS011;42950;52.134;5.578;2022-10-16T05:11:30;5.95;;;2.10;;
23720;SDS011;42950;52.134;5.578;2022-10-16T05:13:56;3.78;;;2.20;;
23720;SDS011;42950;52.134;5.578;2022-10-16T05:16:22;3.28;;;2.20;;
23720;SDS011;42950;52.134;5.578;2022-10-16T05:18:48;2.85;;;2.10;;
23720;SDS011;42950;52.134;5.578;2022-10-16T05:21:13;5.35;;;2.40;;
23720;SDS011;42950;52.134;5.578;2022-10-16T05:23:39;3.55;;;2.40;;
23720;SDS011;42950;52.134;5.578;2022-10-16T05:26:04;3.70;;;2.63;;
23720;SDS011;42950;52.134;5.578;2022-10-16T05:28:30;4.80;;;2.78;;
23720;SDS011;42950;52.134;5.578;2022-10-16T05:30:56;4.00;;;2.75;;
23720;SDS011;42950;52.134;5.578;2022-10-16T05:33:23;4.78;;;3.10;;
23720;SDS011;42950;52.134;5.578;2022-10-16T05:35:50;5.25;;;3.20;;
23720;SDS011;42950;52.134;5.578;2022-10-16T05:38:16;5.63;;;3.25;;
23720;SDS011;42950;52.134;5.578;2022-10-16T05:40:42;6.15;;;3.80;;
23720;SDS011;42950;52.134;5.578;2022-10-16T05:43:08;11.98;;;4.10;;
23720;SDS011;42950;52.134;5.578;2022-10-16T05:45:34;10.60;;;4.05;;
23720;SDS011;42950;52.134;5.578;2022-10-16T05:47:59;6.65;;;3.75;;
23720;SDS011;42950;52.134;5.578;2022-10-16T05:50:25;6.40;;;3.90;;
23720;SDS011;42950;52.134;5.578;2022-10-16T05:52:51;7.30;;;4.53;;
23720;SDS011;42950;52.134;5.578;2022-10-16T05:55:17;6.85;;;4.22;;
23720;SDS011;42950;52.134;5.578;2022-10-16T05:57:43;6.55;;;4.53;;
23720;SDS011;42950;52.134;5.578;2022-10-16T06:00:09;5.38;;;4.45;;
23720;SDS011;42950;52.134;5.578;2022-10-16T06:02:35;6.90;;;4.57;;
23720;SDS011;42950;52.134;5.578;2022-10-16T06:05:00;6.70;;;4.70;;
23720;SDS011;42950;52.134;5.578;2022-10-16T06:07:26;7.93;;;4.90;;
23720;SDS011;42950;52.134;5.578;2022-10-16T06:09:52;8.02;;;4.47;;
23720;SDS011;42950;52.134;5.578;2022-10-16T06:12:18;5.15;;;4.18;;
23720;SDS011;42950;52.134;5.578;2022-10-16T06:14:45;5.90;;;3.85;;
23720;SDS011;42950;52.134;5.578;2022-10-16T06:17:12;8.10;;;3.92;;
23720;SDS011;42950;52.134;5.578;2022-10-16T06:19:38;8.57;;;4.03;;
23720;SDS011;42950;52.134;5.578;2022-10-16T06:22:04;7.45;;;3.85;;
23720;SDS011;42950;52.134;5.578;2022-10-16T06:24:30;4.40;;;3.38;;
23720;SDS011;42950;52.134;5.578;2022-10-16T06:26:55;10.93;;;4.18;;
23720;SDS011;42950;52.134;5.578;2022-10-16T06:29:21;5.35;;;3.17;;
23720;SDS011;42950;52.134;5.578;2022-10-16T06:31:46;5.38;;;3.40;;
23720;SDS011;42950;52.134;5.578;2022-10-16T06:34:12;4.88;;;3.03;;
23720;SDS011;42950;52.134;5.578;2022-10-16T06:36:38;4.68;;;2.85;;
23720;SDS011;42950;52.134;5.578;2022-10-16T06:39:04;4.45;;;3.10;;
23720;SDS011;42950;52.134;5.578;2022-10-16T06:41:31;3.45;;;2.90;;
23720;SDS011;42950;52.134;5.578;2022-10-16T06:43:57;3.95;;;2.60;;
23720;SDS011;42950;52.134;5.578;2022-10-16T06:46:23;5.60;;;2.85;;
23720;SDS011;42950;52.134;5.578;2022-10-16T06:48:50;10.05;;;3.40;;
23720;SDS011;42950;52.134;5.578;2022-10-16T06:51:17;5.80;;;2.55;;
23720;SDS011;42950;52.134;5.578;2022-10-16T06:53:48;4.97;;;2.88;;
23720;SDS011;42950;52.134;5.578;2022-10-16T06:56:16;5.35;;;2.88;;
23720;SDS011;42950;52.134;5.578;2022-10-16T06:58:46;7.68;;;2.50;;
23720;SDS011;42950;52.134;5.578;2022-10-16T07:01:12;6.70;;;2.95;;
23720;SDS011;42950;52.134;5.578;2022-10-16T07:03:39;7.60;;;2.60;;
23720;SDS011;42950;52.134;5.578;2022-10-16T07:06:07;6.43;;;3.03;;
23720;SDS011;42950;52.134;5.578;2022-10-16T07:08:34;4.45;;;2.60;;
23720;SDS011;42950;52.134;5.578;2022-10-16T07:11:01;5.18;;;2.30;;
23720;SDS011;42950;52.134;5.578;2022-10-16T07:13:29;6.47;;;3.08;;
23720;SDS011;42950;52.134;5.578;2022-10-16T07:15:57;7.47;;;3.30;;
23720;SDS011;42950;52.134;5.578;2022-10-16T07:18:23;5.75;;;2.90;;
23720;SDS011;42950;52.134;5.578;2022-10-16T07:20:51;3.65;;;2.47;;
23720;SDS011;42950;52.134;5.578;2022-10-16T07:23:17;6.03;;;2.80;;
23720;SDS011;42950;52.134;5.578;2022-10-16T07:25:43;8.60;;;2.60;;
23720;SDS011;42950;52.134;5.578;2022-10-16T07:28:08;9.75;;;2.83;;
23720;SDS011;42950;52.134;5.578;2022-10-16T07:30:35;4.28;;;3.05;;
23720;SDS011;42950;52.134;5.578;2022-10-16T07:33:02;4.82;;;2.38;;
23720;SDS011;42950;52.134;5.578;2022-10-16T07:35:27;5.63;;;2.25;;
23720;SDS011;42950;52.134;5.578;2022-10-16T07:37:53;3.05;;;2.42;;
23720;SDS011;42950;52.134;5.578;2022-10-16T07:40:18;6.35;;;2.45;;
23720;SDS011;42950;52.134;5.578;2022-10-16T07:42:44;3.17;;;2.00;;
23720;SDS011;42950;52.134;5.578;2022-10-16T07:45:09;6.57;;;1.95;;
23720;SDS011;42950;52.134;5.578;2022-10-16T07:47:35;5.22;;;2.13;;
23720;SDS011;42950;52.134;5.578;2022-10-16T07:50:01;4.95;;;2.25;;
23720;SDS011;42950;52.134;5.578;2022-10-16T07:52:26;6.13;;;2.30;;
23720;SDS011;42950;52.134;5.578;2022-10-16T07:54:52;3.45;;;2.22;;
23720;SDS011;42950;52.134;5.578;2022-10-16T07:57:17;3.30;;;2.28;;
23720;SDS011;42950;52.134;5.578;2022-10-16T07:59:45;5.45;;;2.35;;
23720;SDS011;42950;52.134;5.578;2022-10-16T08:02:11;5.72;;;2.65;;
23720;SDS011;42950;52.134;5.578;2022-10-16T08:04:37;5.07;;;2.63;;
23720;SDS011;42950;52.134;5.578;2022-10-16T08:07:02;5.38;;;2.53;;
23720;SDS011;42950;52.134;5.578;2022-10-16T08:09:28;4.25;;;2.30;;
23720;SDS011;42950;52.134;5.578;2022-10-16T08:11:53;4.63;;;2.47;;
23720;SDS011;42950;52.134;5.578;2022-10-16T08:14:19;4.07;;;2.00;;
23720;SDS011;42950;52.134;5.578;2022-10-16T08:16:45;7.05;;;2.42;;
23720;SDS011;42950;52.134;5.578;2022-10-16T08:19:10;4.93;;;2.30;;
23720;SDS011;42950;52.134;5.578;2022-10-16T08:21:36;3.70;;;2.10;;
23720;SDS011;42950;52.134;5.578;2022-10-16T08:24:01;4.38;;;2.35;;
23720;SDS011;42950;52.134;5.578;2022-10-16T08:26:27;6.18;;;2.53;;
23720;SDS011;42950;52.134;5.578;2022-10-16T08:28:52;4.85;;;2.17;;
23720;SDS011;42950;52.134;5.578;2022-10-16T08:31:18;4.93;;;2.40;;
23720;SDS011;42950;52.134;5.578;2022-10-16T08:33:44;5.63;;;2.40;;
23720;SDS011;42950;52.134;5.578;2022-10-16T08:36:12;4.32;;;2.10;;
23720;SDS011;42950;52.134;5.578;2022-10-16T08:38:39;4.30;;;2.08;;
23720;SDS011;42950;52.134;5.578;2022-10-16T08:49:29;4.65;;;2.15;;
23720;SDS011;42950;52.134;5.578;2022-10-16T08:51:55;7.82;;;2.42;;
23720;SDS011;42950;52.134;5.578;2022-10-16T08:56:53;7.22;;;2.47;;
23720;SDS011;42950;52.134;5.578;2022-10-16T08:59:20;8.95;;;2.90;;
23720;SDS011;42950;52.134;5.578;2022-10-16T09:01:47;5.30;;;2.33;;
23720;SDS011;42950;52.134;5.578;2022-10-16T09:22:42;8.80;;;2.55;;
23720;SDS011;42950;52.134;5.578;2022-10-16T09:25:12;9.48;;;2.10;;
23720;SDS011;42950;52.134;5.578;2022-10-16T09:27:44;9.82;;;2.08;;
23720;SDS011;42950;52.134;5.578;2022-10-16T09:30:21;12.68;;;2.42;;
23720;SDS011;42950;52.134;5.578;2022-10-16T09:32:48;10.57;;;2.10;;
23720;SDS011;42950;52.134;5.578;2022-10-16T09:35:18;10.10;;;2.17;;
23720;SDS011;42950;52.134;5.578;2022-10-16T09:38:03;13.18;;;2.05;;
23720;SDS011;42950;52.134;5.578;2022-10-16T09:40:30;10.35;;;2.25;;
23720;SDS011;42950;52.134;5.578;2022-10-16T09:45:58;8.63;;;2.47;;
23720;SDS011;42950;52.134;5.578;2022-10-16T09:48:25;11.85;;;2.22;;
23720;SDS011;42950;52.134;5.578;2022-10-16T09:50:56;9.13;;;2.13;;
23720;SDS011;42950;52.134;5.578;2022-10-16T09:53:23;10.52;;;2.22;;
23720;SDS011;42950;52.134;5.578;2022-10-16T09:55:51;11.43;;;2.22;;
23720;SDS011;42950;52.134;5.578;2022-10-16T09:58:20;9.32;;;2.25;;
23720;SDS011;42950;52.134;5.578;2022-10-16T10:00:53;12.48;;;2.45;;
23720;SDS011;42950;52.134;5.578;2022-10-16T10:03:55;11.73;;;2.40;;
23720;SDS011;42950;52.134;5.578;2022-10-16T10:08:54;10.05;;;2.22;;
23720;SDS011;42950;52.134;5.578;2022-10-16T10:11:35;12.38;;;2.08;;
23720;SDS011;42950;52.134;5.578;2022-10-16T10:19:30;7.95;;;2.20;;
23720;SDS011;42950;52.134;5.578;2022-10-16T10:24:41;8.18;;;1.80;;
23720;SDS011;42950;52.134;5.578;2022-10-16T10:27:10;11.07;;;1.95;;
23720;SDS011;42950;52.134;5.578;2022-10-16T10:41:00;10.25;;;2.40;;
23720;SDS011;42950;52.134;5.578;2022-10-16T10:46:23;7.75;;;2.53;;
23720;SDS011;42950;52.134;5.578;2022-10-16T10:54:49;8.13;;;1.80;;
23720;SDS011;42950;52.134;5.578;2022-10-16T10:57:29;11.07;;;2.53;;
23720;SDS011;42950;52.134;5.578;2022-10-16T11:03:03;9.85;;;2.10;;
23720;SDS011;42950;52.134;5.578;2022-10-16T11:05:49;11.57;;;2.13;;
23720;SDS011;42950;52.134;5.578;2022-10-16T11:08:39;10.18;;;2.20;;
23720;SDS011;42950;52.134;5.578;2022-10-16T11:22:08;14.30;;;2.20;;
23720;SDS011;42950;52.134;5.578;2022-10-16T11:27:34;12.20;;;2.03;;
23720;SDS011;42950;52.134;5.578;2022-10-16T11:30:05;10.10;;;2.33;;
23720;SDS011;42950;52.134;5.578;2022-10-16T11:32:58;12.70;;;2.20;;
23720;SDS011;42950;52.134;5.578;2022-10-16T11:41:02;11.50;;;1.80;;
23720;SDS011;42950;52.134;5.578;2022-10-16T11:43:40;10.32;;;1.90;;
23720;SDS011;42950;52.134;5.578;2022-10-16T11:46:13;11.32;;;1.77;;
23720;SDS011;42950;52.134;5.578;2022-10-16T11:48:45;8.30;;;1.85;;
23720;SDS011;42950;52.134;5.578;2022-10-16T11:52:04;9.25;;;1.70;;
23720;SDS011;42950;52.134;5.578;2022-10-16T11:56:39;7.13;;;1.48;;
23720;SDS011;42950;52.134;5.578;2022-10-16T11:59:52;8.13;;;1.60;;
23720;SDS011;42950;52.134;5.578;2022-10-16T12:04:47;15.32;;;1.67;;
23720;SDS011;42950;52.134;5.578;2022-10-16T12:07:22;7.60;;;2.05;;
23720;SDS011;42950;52.134;5.578;2022-10-16T12:09:52;11.70;;;1.67;;
23720;SDS011;42950;52.134;5.578;2022-10-16T12:12:25;13.23;;;2.15;;
23720;SDS011;42950;52.134;5.578;2022-10-16T12:17:46;7.47;;;1.63;;
23720;SDS011;42950;52.134;5.578;2022-10-16T12:22:41;11.18;;;2.13;;
23720;SDS011;42950;52.134;5.578;2022-10-16T12:25:53;6.20;;;1.88;;
23720;SDS011;42950;52.134;5.578;2022-10-16T12:28:20;6.75;;;1.35;;
23720;SDS011;42950;52.134;5.578;2022-10-16T12:31:00;8.98;;;1.83;;
23720;SDS011;42950;52.134;5.578;2022-10-16T12:33:34;10.73;;;1.80;;
23720;SDS011;42950;52.134;5.578;2022-10-16T12:36:26;7.80;;;1.50;;
23720;SDS011;42950;52.134;5.578;2022-10-16T12:38:56;10.50;;;2.47;;
23720;SDS011;42950;52.134;5.578;2022-10-16T12:41:27;9.63;;;2.00;;
23720;SDS011;42950;52.134;5.578;2022-10-16T12:43:58;11.57;;;2.00;;
23720;SDS011;42950;52.134;5.578;2022-10-16T12:51:38;10.95;;;1.90;;
23720;SDS011;42950;52.134;5.578;2022-10-16T12:56:47;8.32;;;1.92;;
23720;SDS011;42950;52.134;5.578;2022-10-16T13:07:43;10.98;;;2.05;;
23720;SDS011;42950;52.134;5.578;2022-10-16T13:15:50;9.48;;;1.50;;
23720;SDS011;42950;52.134;5.578;2022-10-16T13:18:42;6.35;;;1.90;;
23720;SDS011;42950;52.134;5.578;2022-10-16T13:21:33;8.43;;;1.90;;
23720;SDS011;42950;52.134;5.578;2022-10-16T13:24:23;10.65;;;1.90;;
23720;SDS011;42950;52.134;5.578;2022-10-16T13:27:07;10.35;;;1.95;;
23720;SDS011;42950;52.134;5.578;2022-10-16T13:29:53;11.55;;;1.90;;
23720;SDS011;42950;52.134;5.578;2022-10-16T13:32:27;9.32;;;1.80;;
23720;SDS011;42950;52.134;5.578;2022-10-16T13:34:52;10.52;;;2.20;;
23720;SDS011;42950;52.134;5.578;2022-10-16T13:37:20;10.95;;;2.38;;
23720;SDS011;42950;52.134;5.578;2022-10-16T13:39:47;9.25;;;2.20;;
23720;SDS011;42950;52.134;5.578;2022-10-16T13:42:24;9.95;;;2.15;;
23720;SDS011;42950;52.134;5.578;2022-10-16T13:44:53;13.35;;;2.13;;
23720;SDS011;42950;52.134;5.578;2022-10-16T13:47:21;11.57;;;1.85;;
23720;SDS011;42950;52.134;5.578;2022-10-16T13:50:03;11.50;;;2.03;;
23720;SDS011;42950;52.134;5.578;2022-10-16T13:52:30;10.70;;;2.25;;
23720;SDS011;42950;52.134;5.578;2022-10-16T13:54:56;9.20;;;1.95;;
23720;SDS011;42950;52.134;5.578;2022-10-16T13:57:25;8.48;;;2.13;;
23720;SDS011;42950;52.134;5.578;2022-10-16T13:59:51;9.43;;;1.70;;
23720;SDS011;42950;52.134;5.578;2022-10-16T14:04:52;11.98;;;2.08;;
23720;SDS011;42950;52.134;5.578;2022-10-16T14:07:29;10.02;;;2.10;;
23720;SDS011;42950;52.134;5.578;2022-10-16T14:10:07;14.52;;;2.28;;
23720;SDS011;42950;52.134;5.578;2022-10-16T14:12:53;9.50;;;2.80;;
23720;SDS011;42950;52.134;5.578;2022-10-16T14:15:24;10.23;;;2.40;;
23720;SDS011;42950;52.134;5.578;2022-10-16T14:17:51;12.77;;;2.55;;
23720;SDS011;42950;52.134;5.578;2022-10-16T14:20:18;8.25;;;2.42;;
23720;SDS011;42950;52.134;5.578;2022-10-16T14:22:45;10.90;;;2.83;;
23720;SDS011;42950;52.134;5.578;2022-10-16T14:28:04;7.68;;;1.80;;
23720;SDS011;42950;52.134;5.578;2022-10-16T14:30:53;9.88;;;2.58;;
23720;SDS011;42950;52.134;5.578;2022-10-16T14:33:24;13.73;;;3.17;;
23720;SDS011;42950;52.134;5.578;2022-10-16T14:38:25;10.95;;;3.17;;
23720;SDS011;42950;52.134;5.578;2022-10-16T14:40:51;9.02;;;2.78;;
23720;SDS011;42950;52.134;5.578;2022-10-16T14:43:24;7.78;;;1.95;;
23720;SDS011;42950;52.134;5.578;2022-10-16T14:45:57;13.65;;;2.65;;
23720;SDS011;42950;52.134;5.578;2022-10-16T14:48:24;11.50;;;2.33;;
23720;SDS011;42950;52.134;5.578;2022-10-16T14:50:49;9.60;;;1.88;;
23720;SDS011;42950;52.134;5.578;2022-10-16T14:53:15;6.70;;;2.28;;
23720;SDS011;42950;52.134;5.578;2022-10-16T14:55:41;10.38;;;2.60;;
23720;SDS011;42950;52.134;5.578;2022-10-16T14:58:20;14.30;;;2.45;;
23720;SDS011;42950;52.134;5.578;2022-10-16T15:00:48;12.18;;;2.30;;
23720;SDS011;42950;52.134;5.578;2022-10-16T15:03:14;11.70;;;2.17;;
23720;SDS011;42950;52.134;5.578;2022-10-16T15:05:40;10.00;;;1.95;;
23720;SDS011;42950;52.134;5.578;2022-10-16T15:08:06;12.55;;;2.17;;
23720;SDS011;42950;52.134;5.578;2022-10-16T15:10:32;8.63;;;2.53;;
23720;SDS011;42950;52.134;5.578;2022-10-16T15:13:11;8.70;;;2.10;;
23720;SDS011;42950;52.134;5.578;2022-10-16T15:15:40;8.52;;;2.28;;
23720;SDS011;42950;52.134;5.578;2022-10-16T15:18:07;14.65;;;4.07;;
23720;SDS011;42950;52.134;5.578;2022-10-16T15:20:33;10.50;;;3.72;;
23720;SDS011;42950;52.134;5.578;2022-10-16T15:23:02;13.50;;;3.88;;
23720;SDS011;42950;52.134;5.578;2022-10-16T15:28:16;8.65;;;2.10;;
23720;SDS011;42950;52.134;5.578;2022-10-16T15:30:44;11.07;;;2.63;;
23720;SDS011;42950;52.134;5.578;2022-10-16T15:33:12;12.57;;;2.17;;
23720;SDS011;42950;52.134;5.578;2022-10-16T15:35:42;7.20;;;2.00;;
23720;SDS011;42950;52.134;5.578;2022-10-16T15:38:11;13.70;;;2.30;;
23720;SDS011;42950;52.134;5.578;2022-10-16T15:40:38;13.48;;;3.03;;
23720;SDS011;42950;52.134;5.578;2022-10-16T15:43:05;9.07;;;1.98;;
23720;SDS011;42950;52.134;5.578;2022-10-16T15:45:31;12.60;;;2.58;;
23720;SDS011;42950;52.134;5.578;2022-10-16T15:47:56;13.32;;;2.53;;
23720;SDS011;42950;52.134;5.578;2022-10-16T15:50:22;13.63;;;2.30;;
23720;SDS011;42950;52.134;5.578;2022-10-16T15:52:48;13.57;;;5.35;;
23720;SDS011;42950;52.134;5.578;2022-10-16T15:55:15;16.95;;;7.57;;
23720;SDS011;42950;52.134;5.578;2022-10-16T15:57:41;21.65;;;8.63;;
23720;SDS011;42950;52.134;5.578;2022-10-16T16:00:17;16.05;;;6.70;;
23720;SDS011;42950;52.134;5.578;2022-10-16T16:02:51;21.27;;;7.82;;
23720;SDS011;42950;52.134;5.578;2022-10-16T16:05:18;15.38;;;5.55;;
23720;SDS011;42950;52.134;5.578;2022-10-16T16:07:45;17.67;;;5.20;;
23720;SDS011;42950;52.134;5.578;2022-10-16T16:10:11;13.73;;;4.88;;
23720;SDS011;42950;52.134;5.578;2022-10-16T16:12:37;12.27;;;4.18;;
23720;SDS011;42950;52.134;5.578;2022-10-16T16:15:05;13.07;;;3.97;;
23720;SDS011;42950;52.134;5.578;2022-10-16T16:17:32;11.93;;;4.10;;
23720;SDS011;42950;52.134;5.578;2022-10-16T16:19:58;15.77;;;3.97;;
23720;SDS011;42950;52.134;5.578;2022-10-16T16:22:24;11.98;;;3.47;;
23720;SDS011;42950;52.134;5.578;2022-10-16T16:24:50;12.60;;;3.60;;
23720;SDS011;42950;52.134;5.578;2022-10-16T16:27:15;14.85;;;3.60;;
23720;SDS011;42950;52.134;5.578;2022-10-16T16:29:47;12.25;;;3.72;;
23720;SDS011;42950;52.134;5.578;2022-10-16T16:32:13;11.50;;;3.50;;
23720;SDS011;42950;52.134;5.578;2022-10-16T16:34:38;14.60;;;3.20;;
23720;SDS011;42950;52.134;5.578;2022-10-16T16:37:04;7.68;;;2.90;;
23720;SDS011;42950;52.134;5.578;2022-10-16T16:39:31;18.38;;;3.30;;
23720;SDS011;42950;52.134;5.578;2022-10-16T16:41:56;8.82;;;3.75;;
23720;SDS011;42950;52.134;5.578;2022-10-16T16:44:23;11.65;;;3.75;;
23720;SDS011;42950;52.134;5.578;2022-10-16T16:46:49;12.20;;;4.65;;
23720;SDS011;42950;52.134;5.578;2022-10-16T16:49:15;13.25;;;4.90;;
23720;SDS011;42950;52.134;5.578;2022-10-16T16:51:40;12.15;;;4.43;;
23720;SDS011;42950;52.134;5.578;2022-10-16T16:54:06;11.93;;;5.10;;
23720;SDS011;42950;52.134;5.578;2022-10-16T16:56:33;18.98;;;5.32;;
23720;SDS011;42950;52.134;5.578;2022-10-16T16:58:58;14.77;;;5.30;;
23720;SDS011;42950;52.134;5.578;2022-10-16T17:01:24;13.40;;;5.05;;
23720;SDS011;42950;52.134;5.578;2022-10-16T17:03:52;11.45;;;5.25;;
23720;SDS011;42950;52.134;5.578;2022-10-16T17:06:20;13.98;;;5.50;;
23720;SDS011;42950;52.134;5.578;2022-10-16T17:08:47;11.48;;;5.28;;
23720;SDS011;42950;52.134;5.578;2022-10-16T17:11:15;14.65;;;6.10;;
23720;SDS011;42950;52.134;5.578;2022-10-16T17:13:42;17.63;;;6.07;;
23720;SDS011;42950;52.134;5.578;2022-10-16T17:16:08;15.52;;;6.30;;
23720;SDS011;42950;52.134;5.578;2022-10-16T17:18:34;14.57;;;6.07;;